sensor_id;sensor_type;location;lat;lon;timestamp;P1;durP1;ratioP1;P2;durP2;ratioP2
47966;SDS011;33733;52.456;13.620;2023-01-24T00:01:30;6.80;;;3.20;;
47966;SDS011;33733;52.456;13.620;2023-01-24T00:03:57;3.35;;;0.93;;
47966;SDS011;33733;52.456;13.620;2023-01-24T00:06:23;4.65;;;2.42;;
47966;SDS011;33733;52.456;13.620;2023-01-24T00:08:50;6.60;;;2.75;;
47966;SDS011;33733;52.456;13.620;2023-01-24T00:11:16;6.75;;;3.60;;
47966;SDS011;33733;52.456;13.620;2023-01-24T00:13:43;8.75;;;3.35;;
47966;SDS011;33733;52.456;13.620;2023-01-24T00:18:39;4.97;;;2.55;;
47966;SDS011;33733;52.456;13.620;2023-01-24T00:21:07;5.72;;;3.70;;
47966;SDS011;33733;52.456;13.620;2023-01-24T00:23:36;6.78;;;2.67;;
47966;SDS011;33733;52.456;13.620;2023-01-24T00:26:03;4.68;;;2.58;;
47966;SDS011;33733;52.456;13.620;2023-01-24T00:28:30;4.45;;;2.17;;
47966;SDS011;33733;52.456;13.620;2023-01-24T00:30:56;5.88;;;3.15;;
47966;SDS011;33733;52.456;13.620;2023-01-24T00:33:23;5.75;;;2.70;;
47966;SDS011;33733;52.456;13.620;2023-01-24T00:35:50;6.22;;;3.35;;
47966;SDS011;33733;52.456;13.620;2023-01-24T00:38:18;4.13;;;2.13;;
47966;SDS011;33733;52.456;13.620;2023-01-24T00:40:45;4.63;;;2.92;;
47966;SDS011;33733;52.456;13.620;2023-01-24T00:43:12;6.47;;;2.60;;
47966;SDS011;33733;52.456;13.620;2023-01-24T00:45:39;7.47;;;3.15;;
47966;SDS011;33733;52.456;13.620;2023-01-24T00:48:06;5.53;;;3.58;;
47966;SDS011;33733;52.456;13.620;2023-01-24T00:50:33;4.18;;;2.33;;
47966;SDS011;33733;52.456;13.620;2023-01-24T00:53:00;4.97;;;2.75;;
47966;SDS011;33733;52.456;13.620;2023-01-24T00:55:27;5.95;;;1.70;;
47966;SDS011;33733;52.456;13.620;2023-01-24T00:57:54;7.30;;;3.25;;
47966;SDS011;33733;52.456;13.620;2023-01-24T01:00:21;5.32;;;2.95;;
47966;SDS011;33733;52.456;13.620;2023-01-24T01:02:48;5.75;;;3.10;;
47966;SDS011;33733;52.456;13.620;2023-01-24T01:05:15;7.40;;;3.72;;
47966;SDS011;33733;52.456;13.620;2023-01-24T01:07:42;10.55;;;3.15;;
47966;SDS011;33733;52.456;13.620;2023-01-24T01:10:09;10.68;;;3.40;;
47966;SDS011;33733;52.456;13.620;2023-01-24T01:12:36;5.18;;;2.95;;
47966;SDS011;33733;52.456;13.620;2023-01-24T01:15:03;8.20;;;3.15;;
47966;SDS011;33733;52.456;13.620;2023-01-24T01:17:30;6.30;;;3.13;;
47966;SDS011;33733;52.456;13.620;2023-01-24T01:19:56;7.20;;;2.92;;
47966;SDS011;33733;52.456;13.620;2023-01-24T01:22:24;6.90;;;3.90;;
47966;SDS011;33733;52.456;13.620;2023-01-24T01:24:51;4.50;;;2.67;;
47966;SDS011;33733;52.456;13.620;2023-01-24T01:27:17;4.57;;;2.40;;
47966;SDS011;33733;52.456;13.620;2023-01-24T01:29:44;6.35;;;2.92;;
47966;SDS011;33733;52.456;13.620;2023-01-24T01:32:10;6.10;;;3.38;;
47966;SDS011;33733;52.456;13.620;2023-01-24T01:34:37;5.43;;;3.17;;
47966;SDS011;33733;52.456;13.620;2023-01-24T01:37:04;4.70;;;2.92;;
47966;SDS011;33733;52.456;13.620;2023-01-24T01:39:30;4.50;;;2.33;;
47966;SDS011;33733;52.456;13.620;2023-01-24T01:41:57;4.60;;;1.88;;
47966;SDS011;33733;52.456;13.620;2023-01-24T01:44:25;7.32;;;3.03;;
47966;SDS011;33733;52.456;13.620;2023-01-24T01:49:50;5.45;;;2.45;;
47966;SDS011;33733;52.456;13.620;2023-01-24T01:52:22;3.80;;;1.67;;
47966;SDS011;33733;52.456;13.620;2023-01-24T01:54:51;5.97;;;2.70;;
47966;SDS011;33733;52.456;13.620;2023-01-24T01:57:22;5.32;;;2.83;;
47966;SDS011;33733;52.456;13.620;2023-01-24T01:59:53;4.00;;;2.63;;
47966;SDS011;33733;52.456;13.620;2023-01-24T02:02:23;7.82;;;3.88;;
47966;SDS011;33733;52.456;13.620;2023-01-24T02:04:55;3.90;;;1.95;;
47966;SDS011;33733;52.456;13.620;2023-01-24T02:10:22;5.45;;;2.50;;
47966;SDS011;33733;52.456;13.620;2023-01-24T02:12:50;4.80;;;2.83;;
47966;SDS011;33733;52.456;13.620;2023-01-24T02:15:21;5.85;;;2.53;;
47966;SDS011;33733;52.456;13.620;2023-01-24T02:18:07;5.03;;;2.80;;
47966;SDS011;33733;52.456;13.620;2023-01-24T02:20:36;3.58;;;2.35;;
47966;SDS011;33733;52.456;13.620;2023-01-24T02:28:06;4.40;;;2.00;;
47966;SDS011;33733;52.456;13.620;2023-01-24T02:30:35;6.05;;;2.80;;
47966;SDS011;33733;52.456;13.620;2023-01-24T02:33:12;3.13;;;1.10;;
47966;SDS011;33733;52.456;13.620;2023-01-24T02:35:41;3.55;;;1.98;;
47966;SDS011;33733;52.456;13.620;2023-01-24T02:38:16;3.33;;;1.20;;
47966;SDS011;33733;52.456;13.620;2023-01-24T02:40:50;4.03;;;1.40;;
47966;SDS011;33733;52.456;13.620;2023-01-24T02:43:19;4.80;;;2.92;;
47966;SDS011;33733;52.456;13.620;2023-01-24T02:45:47;4.85;;;2.65;;
47966;SDS011;33733;52.456;13.620;2023-01-24T02:48:14;3.83;;;2.15;;
47966;SDS011;33733;52.456;13.620;2023-01-24T02:50:40;2.63;;;1.63;;
47966;SDS011;33733;52.456;13.620;2023-01-24T02:53:25;3.60;;;1.75;;
47966;SDS011;33733;52.456;13.620;2023-01-24T02:56:03;3.22;;;1.75;;
47966;SDS011;33733;52.456;13.620;2023-01-24T02:58:49;3.78;;;1.67;;
47966;SDS011;33733;52.456;13.620;2023-01-24T03:01:16;4.15;;;2.60;;
47966;SDS011;33733;52.456;13.620;2023-01-24T03:03:48;4.55;;;2.60;;
47966;SDS011;33733;52.456;13.620;2023-01-24T03:06:15;3.92;;;1.95;;
47966;SDS011;33733;52.456;13.620;2023-01-24T03:08:43;4.47;;;2.85;;
47966;SDS011;33733;52.456;13.620;2023-01-24T03:11:30;3.78;;;2.55;;
47966;SDS011;33733;52.456;13.620;2023-01-24T03:13:57;3.92;;;2.22;;
47966;SDS011;33733;52.456;13.620;2023-01-24T03:16:42;4.72;;;3.00;;
47966;SDS011;33733;52.456;13.620;2023-01-24T03:19:28;3.53;;;1.30;;
47966;SDS011;33733;52.456;13.620;2023-01-24T03:22:13;4.00;;;2.20;;
47966;SDS011;33733;52.456;13.620;2023-01-24T03:24:58;5.93;;;3.63;;
47966;SDS011;33733;52.456;13.620;2023-01-24T03:27:43;5.05;;;1.63;;
47966;SDS011;33733;52.456;13.620;2023-01-24T03:30:31;3.00;;;1.50;;
47966;SDS011;33733;52.456;13.620;2023-01-24T03:33:17;3.65;;;2.17;;
47966;SDS011;33733;52.456;13.620;2023-01-24T03:36:05;5.43;;;2.08;;
47966;SDS011;33733;52.456;13.620;2023-01-24T03:38:34;4.38;;;2.03;;
47966;SDS011;33733;52.456;13.620;2023-01-24T03:41:21;5.65;;;2.75;;
47966;SDS011;33733;52.456;13.620;2023-01-24T03:43:48;3.83;;;2.45;;
47966;SDS011;33733;52.456;13.620;2023-01-24T03:46:15;4.32;;;2.15;;
47966;SDS011;33733;52.456;13.620;2023-01-24T03:48:54;4.43;;;2.80;;
47966;SDS011;33733;52.456;13.620;2023-01-24T03:51:29;3.60;;;2.10;;
47966;SDS011;33733;52.456;13.620;2023-01-24T03:54:14;6.05;;;2.58;;
47966;SDS011;33733;52.456;13.620;2023-01-24T03:56:51;3.90;;;1.95;;
47966;SDS011;33733;52.456;13.620;2023-01-24T03:59:19;4.00;;;2.78;;
47966;SDS011;33733;52.456;13.620;2023-01-24T04:01:46;4.50;;;2.33;;
47966;SDS011;33733;52.456;13.620;2023-01-24T04:04:33;3.15;;;1.20;;
47966;SDS011;33733;52.456;13.620;2023-01-24T04:07:18;3.17;;;1.73;;
47966;SDS011;33733;52.456;13.620;2023-01-24T04:09:56;5.20;;;2.70;;
47966;SDS011;33733;52.456;13.620;2023-01-24T04:12:29;4.07;;;2.20;;
47966;SDS011;33733;52.456;13.620;2023-01-24T04:14:56;5.03;;;2.17;;
47966;SDS011;33733;52.456;13.620;2023-01-24T04:17:24;3.75;;;2.05;;
47966;SDS011;33733;52.456;13.620;2023-01-24T04:19:52;4.30;;;1.92;;
47966;SDS011;33733;52.456;13.620;2023-01-24T04:22:19;7.43;;;2.30;;
47966;SDS011;33733;52.456;13.620;2023-01-24T04:24:46;4.40;;;2.17;;
47966;SDS011;33733;52.456;13.620;2023-01-24T04:27:13;2.63;;;1.42;;
47966;SDS011;33733;52.456;13.620;2023-01-24T04:30:07;4.85;;;2.72;;
47966;SDS011;33733;52.456;13.620;2023-01-24T04:32:38;3.92;;;2.20;;
47966;SDS011;33733;52.456;13.620;2023-01-24T04:35:14;4.03;;;1.52;;
47966;SDS011;33733;52.456;13.620;2023-01-24T04:37:49;4.07;;;2.45;;
47966;SDS011;33733;52.456;13.620;2023-01-24T04:40:27;4.65;;;2.08;;
47966;SDS011;33733;52.456;13.620;2023-01-24T04:42:57;5.20;;;2.63;;
47966;SDS011;33733;52.456;13.620;2023-01-24T04:45:25;4.03;;;1.90;;
47966;SDS011;33733;52.456;13.620;2023-01-24T04:47:57;3.20;;;1.42;;
47966;SDS011;33733;52.456;13.620;2023-01-24T04:50:25;4.57;;;2.95;;
47966;SDS011;33733;52.456;13.620;2023-01-24T04:52:51;5.25;;;2.92;;
47966;SDS011;33733;52.456;13.620;2023-01-24T04:55:18;2.78;;;1.25;;
47966;SDS011;33733;52.456;13.620;2023-01-24T04:57:45;4.68;;;1.92;;
47966;SDS011;33733;52.456;13.620;2023-01-24T05:00:12;4.35;;;2.28;;
47966;SDS011;33733;52.456;13.620;2023-01-24T05:02:39;5.00;;;2.80;;
47966;SDS011;33733;52.456;13.620;2023-01-24T05:05:06;4.22;;;2.45;;
47966;SDS011;33733;52.456;13.620;2023-01-24T05:07:33;5.57;;;2.30;;
47966;SDS011;33733;52.456;13.620;2023-01-24T05:10:09;3.80;;;1.77;;
47966;SDS011;33733;52.456;13.620;2023-01-24T05:12:37;5.13;;;2.90;;
47966;SDS011;33733;52.456;13.620;2023-01-24T05:15:16;6.97;;;2.72;;
47966;SDS011;33733;52.456;13.620;2023-01-24T05:17:44;4.57;;;2.40;;
47966;SDS011;33733;52.456;13.620;2023-01-24T05:20:15;4.82;;;2.67;;
47966;SDS011;33733;52.456;13.620;2023-01-24T05:22:42;11.00;;;2.80;;
47966;SDS011;33733;52.456;13.620;2023-01-24T05:25:14;5.63;;;3.20;;
47966;SDS011;33733;52.456;13.620;2023-01-24T05:27:44;5.60;;;2.55;;
47966;SDS011;33733;52.456;13.620;2023-01-24T05:30:12;7.68;;;3.03;;
47966;SDS011;33733;52.456;13.620;2023-01-24T05:32:39;6.80;;;1.70;;
47966;SDS011;33733;52.456;13.620;2023-01-24T05:35:06;5.20;;;2.50;;
47966;SDS011;33733;52.456;13.620;2023-01-24T05:37:37;6.00;;;3.15;;
47966;SDS011;33733;52.456;13.620;2023-01-24T05:40:06;6.25;;;3.13;;
47966;SDS011;33733;52.456;13.620;2023-01-24T05:42:34;4.10;;;1.85;;
47966;SDS011;33733;52.456;13.620;2023-01-24T05:45:01;3.47;;;2.20;;
47966;SDS011;33733;52.456;13.620;2023-01-24T05:47:29;6.82;;;3.90;;
47966;SDS011;33733;52.456;13.620;2023-01-24T05:49:55;7.90;;;3.20;;
47966;SDS011;33733;52.456;13.620;2023-01-24T05:52:22;6.75;;;2.67;;
47966;SDS011;33733;52.456;13.620;2023-01-24T05:54:51;5.63;;;2.63;;
47966;SDS011;33733;52.456;13.620;2023-01-24T05:57:29;3.85;;;1.67;;
47966;SDS011;33733;52.456;13.620;2023-01-24T06:00:15;4.45;;;2.40;;
47966;SDS011;33733;52.456;13.620;2023-01-24T06:03:00;4.07;;;2.40;;
47966;SDS011;33733;52.456;13.620;2023-01-24T06:05:27;7.20;;;4.20;;
47966;SDS011;33733;52.456;13.620;2023-01-24T06:07:54;4.75;;;3.05;;
47966;SDS011;33733;52.456;13.620;2023-01-24T06:10:21;5.50;;;3.45;;
47966;SDS011;33733;52.456;13.620;2023-01-24T06:13:03;7.95;;;3.72;;
47966;SDS011;33733;52.456;13.620;2023-01-24T06:15:29;5.78;;;2.92;;
47966;SDS011;33733;52.456;13.620;2023-01-24T06:17:57;3.22;;;1.55;;
47966;SDS011;33733;52.456;13.620;2023-01-24T06:20:24;7.65;;;3.80;;
47966;SDS011;33733;52.456;13.620;2023-01-24T06:22:51;4.57;;;2.13;;
47966;SDS011;33733;52.456;13.620;2023-01-24T06:25:24;6.90;;;2.33;;
47966;SDS011;33733;52.456;13.620;2023-01-24T06:27:52;6.03;;;2.60;;
47966;SDS011;33733;52.456;13.620;2023-01-24T06:30:19;7.95;;;3.42;;
47966;SDS011;33733;52.456;13.620;2023-01-24T06:38:20;13.52;;;3.33;;
47966;SDS011;33733;52.456;13.620;2023-01-24T06:40:51;7.28;;;3.42;;
47966;SDS011;33733;52.456;13.620;2023-01-24T06:43:20;5.90;;;3.00;;
47966;SDS011;33733;52.456;13.620;2023-01-24T06:45:47;5.80;;;3.47;;
47966;SDS011;33733;52.456;13.620;2023-01-24T06:48:17;5.57;;;3.28;;
47966;SDS011;33733;52.456;13.620;2023-01-24T06:53:10;11.13;;;5.03;;
47966;SDS011;33733;52.456;13.620;2023-01-24T06:55:39;7.60;;;4.18;;
47966;SDS011;33733;52.456;13.620;2023-01-24T06:58:05;6.15;;;3.28;;
47966;SDS011;33733;52.456;13.620;2023-01-24T07:00:32;16.00;;;4.15;;
47966;SDS011;33733;52.456;13.620;2023-01-24T07:03:02;8.95;;;3.97;;
47966;SDS011;33733;52.456;13.620;2023-01-24T07:05:36;10.20;;;3.70;;
47966;SDS011;33733;52.456;13.620;2023-01-24T07:08:04;9.45;;;4.55;;
47966;SDS011;33733;52.456;13.620;2023-01-24T07:10:31;7.68;;;2.47;;
47966;SDS011;33733;52.456;13.620;2023-01-24T07:12:58;7.13;;;2.70;;
47966;SDS011;33733;52.456;13.620;2023-01-24T07:15:25;6.22;;;3.08;;
47966;SDS011;33733;52.456;13.620;2023-01-24T07:17:52;11.30;;;4.82;;
47966;SDS011;33733;52.456;13.620;2023-01-24T07:20:19;9.18;;;5.03;;
47966;SDS011;33733;52.456;13.620;2023-01-24T07:22:46;10.18;;;4.47;;
47966;SDS011;33733;52.456;13.620;2023-01-24T07:25:18;12.15;;;5.32;;
47966;SDS011;33733;52.456;13.620;2023-01-24T07:27:46;10.70;;;5.20;;
47966;SDS011;33733;52.456;13.620;2023-01-24T07:30:14;10.07;;;4.15;;
47966;SDS011;33733;52.456;13.620;2023-01-24T07:32:41;7.95;;;2.80;;
47966;SDS011;33733;52.456;13.620;2023-01-24T07:35:07;15.90;;;4.22;;
47966;SDS011;33733;52.456;13.620;2023-01-24T07:37:34;12.15;;;4.32;;
47966;SDS011;33733;52.456;13.620;2023-01-24T07:40:01;6.00;;;3.28;;
47966;SDS011;33733;52.456;13.620;2023-01-24T07:42:28;8.98;;;3.45;;
47966;SDS011;33733;52.456;13.620;2023-01-24T07:44:55;6.22;;;2.78;;
47966;SDS011;33733;52.456;13.620;2023-01-24T07:47:23;18.58;;;3.85;;
47966;SDS011;33733;52.456;13.620;2023-01-24T07:49:52;5.30;;;3.78;;
47966;SDS011;33733;52.456;13.620;2023-01-24T07:52:19;10.10;;;4.45;;
47966;SDS011;33733;52.456;13.620;2023-01-24T07:54:46;12.15;;;4.78;;
47966;SDS011;33733;52.456;13.620;2023-01-24T07:57:13;16.23;;;3.92;;
47966;SDS011;33733;52.456;13.620;2023-01-24T07:59:41;10.75;;;4.80;;
47966;SDS011;33733;52.456;13.620;2023-01-24T08:02:09;9.70;;;4.82;;
47966;SDS011;33733;52.456;13.620;2023-01-24T08:04:37;9.02;;;5.40;;
47966;SDS011;33733;52.456;13.620;2023-01-24T08:07:07;14.48;;;6.63;;
47966;SDS011;33733;52.456;13.620;2023-01-24T08:09:46;7.78;;;4.57;;
47966;SDS011;33733;52.456;13.620;2023-01-24T08:12:18;11.07;;;5.60;;
47966;SDS011;33733;52.456;13.620;2023-01-24T08:14:45;9.50;;;5.18;;
47966;SDS011;33733;52.456;13.620;2023-01-24T08:17:11;6.90;;;3.85;;
47966;SDS011;33733;52.456;13.620;2023-01-24T08:19:39;7.57;;;4.32;;
47966;SDS011;33733;52.456;13.620;2023-01-24T08:22:24;17.90;;;4.25;;
47966;SDS011;33733;52.456;13.620;2023-01-24T08:25:43;13.60;;;4.15;;
47966;SDS011;33733;52.456;13.620;2023-01-24T08:28:10;11.30;;;4.75;;
47966;SDS011;33733;52.456;13.620;2023-01-24T08:30:36;5.93;;;3.35;;
47966;SDS011;33733;52.456;13.620;2023-01-24T08:33:04;8.93;;;4.55;;
47966;SDS011;33733;52.456;13.620;2023-01-24T08:35:32;7.30;;;2.67;;
47966;SDS011;33733;52.456;13.620;2023-01-24T08:37:59;8.50;;;4.15;;
47966;SDS011;33733;52.456;13.620;2023-01-24T08:40:25;7.60;;;3.35;;
47966;SDS011;33733;52.456;13.620;2023-01-24T08:42:54;8.75;;;3.22;;
47966;SDS011;33733;52.456;13.620;2023-01-24T08:45:21;6.32;;;3.78;;
47966;SDS011;33733;52.456;13.620;2023-01-24T08:47:51;7.20;;;3.60;;
47966;SDS011;33733;52.456;13.620;2023-01-24T08:50:19;6.32;;;3.63;;
47966;SDS011;33733;52.456;13.620;2023-01-24T08:52:46;8.18;;;4.80;;
47966;SDS011;33733;52.456;13.620;2023-01-24T08:55:13;7.28;;;3.78;;
47966;SDS011;33733;52.456;13.620;2023-01-24T08:57:40;5.07;;;2.47;;
47966;SDS011;33733;52.456;13.620;2023-01-24T09:00:07;10.18;;;4.43;;
47966;SDS011;33733;52.456;13.620;2023-01-24T09:02:34;9.40;;;4.60;;
47966;SDS011;33733;52.456;13.620;2023-01-24T09:05:05;12.38;;;3.20;;
47966;SDS011;33733;52.456;13.620;2023-01-24T09:07:32;9.40;;;4.35;;
47966;SDS011;33733;52.456;13.620;2023-01-24T09:10:03;6.20;;;3.35;;
47966;SDS011;33733;52.456;13.620;2023-01-24T09:12:30;9.63;;;4.93;;
47966;SDS011;33733;52.456;13.620;2023-01-24T09:14:59;8.25;;;4.50;;
47966;SDS011;33733;52.456;13.620;2023-01-24T09:17:25;4.90;;;2.13;;
47966;SDS011;33733;52.456;13.620;2023-01-24T09:19:52;7.07;;;3.70;;
47966;SDS011;33733;52.456;13.620;2023-01-24T09:22:18;8.57;;;5.30;;
47966;SDS011;33733;52.456;13.620;2023-01-24T09:24:47;7.82;;;4.07;;
47966;SDS011;33733;52.456;13.620;2023-01-24T09:27:14;7.40;;;4.57;;
47966;SDS011;33733;52.456;13.620;2023-01-24T09:29:41;9.27;;;3.55;;
47966;SDS011;33733;52.456;13.620;2023-01-24T09:32:07;10.00;;;4.15;;
47966;SDS011;33733;52.456;13.620;2023-01-24T09:34:34;8.85;;;4.60;;
47966;SDS011;33733;52.456;13.620;2023-01-24T09:37:00;7.45;;;4.40;;
47966;SDS011;33733;52.456;13.620;2023-01-24T09:39:27;8.60;;;5.03;;
47966;SDS011;33733;52.456;13.620;2023-01-24T09:44:39;9.00;;;4.15;;
47966;SDS011;33733;52.456;13.620;2023-01-24T09:47:16;6.13;;;2.70;;
47966;SDS011;33733;52.456;13.620;2023-01-24T09:49:55;6.22;;;3.65;;
47966;SDS011;33733;52.456;13.620;2023-01-24T10:00:21;11.02;;;6.00;;
47966;SDS011;33733;52.456;13.620;2023-01-24T10:02:52;12.85;;;5.53;;
47966;SDS011;33733;52.456;13.620;2023-01-24T10:05:21;10.02;;;4.95;;
47966;SDS011;33733;52.456;13.620;2023-01-24T10:08:05;9.07;;;4.45;;
47966;SDS011;33733;52.456;13.620;2023-01-24T10:15:48;6.85;;;2.92;;
47966;SDS011;33733;52.456;13.620;2023-01-24T10:18:28;9.10;;;4.82;;
47966;SDS011;33733;52.456;13.620;2023-01-24T10:24:05;11.05;;;4.13;;
47966;SDS011;33733;52.456;13.620;2023-01-24T10:29:13;9.23;;;4.70;;
47966;SDS011;33733;52.456;13.620;2023-01-24T10:31:44;8.70;;;4.28;;
47966;SDS011;33733;52.456;13.620;2023-01-24T10:34:26;11.10;;;4.25;;
47966;SDS011;33733;52.456;13.620;2023-01-24T10:37:44;8.98;;;5.22;;
47966;SDS011;33733;52.456;13.620;2023-01-24T10:39:52;10.00;;;4.93;;
47966;SDS011;33733;52.456;13.620;2023-01-24T10:42:21;6.97;;;3.90;;
47966;SDS011;33733;52.456;13.620;2023-01-24T10:44:53;8.60;;;5.22;;
47966;SDS011;33733;52.456;13.620;2023-01-24T10:50:01;9.55;;;4.95;;
47966;SDS011;33733;52.456;13.620;2023-01-24T10:52:31;7.80;;;2.47;;
47966;SDS011;33733;52.456;13.620;2023-01-24T10:55:00;7.68;;;4.35;;
47966;SDS011;33733;52.456;13.620;2023-01-24T11:00:05;24.48;;;14.05;;
47966;SDS011;33733;52.456;13.620;2023-01-24T11:02:49;22.85;;;14.50;;
47966;SDS011;33733;52.456;13.620;2023-01-24T11:05:18;8.40;;;5.07;;
47966;SDS011;33733;52.456;13.620;2023-01-24T11:07:48;9.32;;;5.07;;
47966;SDS011;33733;52.456;13.620;2023-01-24T11:10:19;10.73;;;4.72;;
47966;SDS011;33733;52.456;13.620;2023-01-24T11:15:22;6.43;;;3.53;;
47966;SDS011;33733;52.456;13.620;2023-01-24T11:17:57;12.23;;;4.13;;
47966;SDS011;33733;52.456;13.620;2023-01-24T11:20:38;7.20;;;3.75;;
47966;SDS011;33733;52.456;13.620;2023-01-24T11:25:57;4.93;;;2.72;;
47966;SDS011;33733;52.456;13.620;2023-01-24T11:28:28;6.30;;;3.40;;
47966;SDS011;33733;52.456;13.620;2023-01-24T11:30:56;8.23;;;4.25;;
47966;SDS011;33733;52.456;13.620;2023-01-24T11:33:46;12.07;;;4.15;;
47966;SDS011;33733;52.456;13.620;2023-01-24T11:36:39;5.30;;;3.45;;
47966;SDS011;33733;52.456;13.620;2023-01-24T11:39:33;6.32;;;2.63;;
47966;SDS011;33733;52.456;13.620;2023-01-24T11:45:25;7.93;;;4.28;;
47966;SDS011;33733;52.456;13.620;2023-01-24T11:50:47;7.35;;;3.90;;
47966;SDS011;33733;52.456;13.620;2023-01-24T12:02:17;7.55;;;4.43;;
47966;SDS011;33733;52.456;13.620;2023-01-24T12:05:04;6.22;;;2.60;;
47966;SDS011;33733;52.456;13.620;2023-01-24T12:20:59;6.30;;;3.63;;
47966;SDS011;33733;52.456;13.620;2023-01-24T12:26:32;7.25;;;3.30;;
47966;SDS011;33733;52.456;13.620;2023-01-24T12:34:52;10.27;;;4.88;;
47966;SDS011;33733;52.456;13.620;2023-01-24T12:40:15;10.73;;;3.47;;
47966;SDS011;33733;52.456;13.620;2023-01-24T12:45:40;8.68;;;4.47;;
47966;SDS011;33733;52.456;13.620;2023-01-24T12:48:16;12.85;;;4.07;;
47966;SDS011;33733;52.456;13.620;2023-01-24T12:50:58;9.07;;;5.35;;
47966;SDS011;33733;52.456;13.620;2023-01-24T12:53:38;6.88;;;3.92;;
47966;SDS011;33733;52.456;13.620;2023-01-24T12:56:15;10.07;;;5.38;;
47966;SDS011;33733;52.456;13.620;2023-01-24T12:58:45;9.15;;;4.85;;
47966;SDS011;33733;52.456;13.620;2023-01-24T13:04:08;11.18;;;5.22;;
47966;SDS011;33733;52.456;13.620;2023-01-24T13:06:59;15.10;;;3.35;;
47966;SDS011;33733;52.456;13.620;2023-01-24T13:09:38;10.90;;;5.85;;
47966;SDS011;33733;52.456;13.620;2023-01-24T13:12:24;7.22;;;4.35;;
47966;SDS011;33733;52.456;13.620;2023-01-24T13:14:53;8.65;;;4.55;;
47966;SDS011;33733;52.456;13.620;2023-01-24T13:30:53;6.65;;;3.42;;
47966;SDS011;33733;52.456;13.620;2023-01-24T13:33:28;9.48;;;4.07;;
47966;SDS011;33733;52.456;13.620;2023-01-24T13:36:05;9.88;;;4.35;;
47966;SDS011;33733;52.456;13.620;2023-01-24T13:38:42;10.52;;;4.30;;
47966;SDS011;33733;52.456;13.620;2023-01-24T13:41:17;15.52;;;4.13;;
47966;SDS011;33733;52.456;13.620;2023-01-24T13:43:59;8.60;;;4.72;;
47966;SDS011;33733;52.456;13.620;2023-01-24T13:47:19;8.98;;;3.88;;
47966;SDS011;33733;52.456;13.620;2023-01-24T13:51:55;11.68;;;7.05;;
47966;SDS011;33733;52.456;13.620;2023-01-24T13:54:41;9.50;;;3.33;;
47966;SDS011;33733;52.456;13.620;2023-01-24T13:57:20;6.93;;;4.38;;
47966;SDS011;33733;52.456;13.620;2023-01-24T14:00:02;6.90;;;3.35;;
47966;SDS011;33733;52.456;13.620;2023-01-24T14:02:39;6.22;;;3.63;;
47966;SDS011;33733;52.456;13.620;2023-01-24T14:07:57;12.00;;;5.20;;
47966;SDS011;33733;52.456;13.620;2023-01-24T14:10:31;6.78;;;4.57;;
47966;SDS011;33733;52.456;13.620;2023-01-24T14:16:11;8.38;;;5.00;;
47966;SDS011;33733;52.456;13.620;2023-01-24T14:21:45;8.05;;;5.07;;
47966;SDS011;33733;52.456;13.620;2023-01-24T14:24:36;6.35;;;3.92;;
47966;SDS011;33733;52.456;13.620;2023-01-24T14:27:47;9.38;;;4.75;;
47966;SDS011;33733;52.456;13.620;2023-01-24T14:32:46;6.78;;;3.78;;
47966;SDS011;33733;52.456;13.620;2023-01-24T14:37:44;7.65;;;4.07;;
47966;SDS011;33733;52.456;13.620;2023-01-24T14:40:14;6.97;;;4.22;;
47966;SDS011;33733;52.456;13.620;2023-01-24T14:42:44;9.68;;;2.53;;
47966;SDS011;33733;52.456;13.620;2023-01-24T14:45:14;9.98;;;6.00;;
47966;SDS011;33733;52.456;13.620;2023-01-24T14:47:45;8.52;;;4.15;;
47966;SDS011;33733;52.456;13.620;2023-01-24T14:50:24;10.25;;;4.50;;
47966;SDS011;33733;52.456;13.620;2023-01-24T14:52:53;10.50;;;4.40;;
47966;SDS011;33733;52.456;13.620;2023-01-24T14:57:52;6.97;;;4.53;;
47966;SDS011;33733;52.456;13.620;2023-01-24T15:00:20;7.57;;;4.00;;
47966;SDS011;33733;52.456;13.620;2023-01-24T15:02:51;8.38;;;2.70;;
47966;SDS011;33733;52.456;13.620;2023-01-24T15:05:24;7.03;;;3.58;;
47966;SDS011;33733;52.456;13.620;2023-01-24T15:07:53;8.07;;;4.82;;
47966;SDS011;33733;52.456;13.620;2023-01-24T15:10:24;9.00;;;5.47;;
47966;SDS011;33733;52.456;13.620;2023-01-24T15:12:52;13.75;;;4.35;;
47966;SDS011;33733;52.456;13.620;2023-01-24T15:15:21;5.97;;;2.80;;
47966;SDS011;33733;52.456;13.620;2023-01-24T15:17:48;6.25;;;2.90;;
47966;SDS011;33733;52.456;13.620;2023-01-24T15:20:16;7.93;;;4.82;;
47966;SDS011;33733;52.456;13.620;2023-01-24T15:22:49;7.70;;;3.88;;
47966;SDS011;33733;52.456;13.620;2023-01-24T15:25:22;9.25;;;4.88;;
47966;SDS011;33733;52.456;13.620;2023-01-24T15:27:52;8.68;;;5.95;;
47966;SDS011;33733;52.456;13.620;2023-01-24T15:30:23;8.05;;;5.15;;
47966;SDS011;33733;52.456;13.620;2023-01-24T15:35:39;11.30;;;4.90;;
47966;SDS011;33733;52.456;13.620;2023-01-24T15:38:21;7.43;;;2.70;;
47966;SDS011;33733;52.456;13.620;2023-01-24T15:40:54;8.45;;;4.85;;
47966;SDS011;33733;52.456;13.620;2023-01-24T15:43:23;9.75;;;4.20;;
47966;SDS011;33733;52.456;13.620;2023-01-24T15:46:19;10.50;;;2.78;;
47966;SDS011;33733;52.456;13.620;2023-01-24T15:51:59;10.25;;;5.47;;
47966;SDS011;33733;52.456;13.620;2023-01-24T15:54:31;11.68;;;5.20;;
47966;SDS011;33733;52.456;13.620;2023-01-24T15:56:58;8.15;;;3.90;;
47966;SDS011;33733;52.456;13.620;2023-01-24T15:59:28;11.55;;;6.00;;
47966;SDS011;33733;52.456;13.620;2023-01-24T16:01:55;8.40;;;4.45;;
47966;SDS011;33733;52.456;13.620;2023-01-24T16:04:22;9.57;;;5.13;;
47966;SDS011;33733;52.456;13.620;2023-01-24T16:06:49;9.52;;;5.22;;
47966;SDS011;33733;52.456;13.620;2023-01-24T16:09:16;9.00;;;5.32;;
47966;SDS011;33733;52.456;13.620;2023-01-24T16:11:45;9.32;;;4.70;;
47966;SDS011;33733;52.456;13.620;2023-01-24T16:14:15;7.57;;;3.65;;
47966;SDS011;33733;52.456;13.620;2023-01-24T16:16:44;8.98;;;4.25;;
47966;SDS011;33733;52.456;13.620;2023-01-24T16:19:16;6.78;;;3.90;;
47966;SDS011;33733;52.456;13.620;2023-01-24T16:21:44;7.60;;;4.70;;
47966;SDS011;33733;52.456;13.620;2023-01-24T16:24:11;8.65;;;5.35;;
47966;SDS011;33733;52.456;13.620;2023-01-24T16:26:38;8.43;;;4.38;;
47966;SDS011;33733;52.456;13.620;2023-01-24T16:29:28;11.73;;;7.40;;
47966;SDS011;33733;52.456;13.620;2023-01-24T16:31:54;9.57;;;5.00;;
47966;SDS011;33733;52.456;13.620;2023-01-24T16:34:21;7.57;;;3.92;;
47966;SDS011;33733;52.456;13.620;2023-01-24T16:36:48;12.68;;;5.32;;
47966;SDS011;33733;52.456;13.620;2023-01-24T16:39:18;11.38;;;4.70;;
47966;SDS011;33733;52.456;13.620;2023-01-24T16:41:47;7.32;;;4.90;;
47966;SDS011;33733;52.456;13.620;2023-01-24T16:44:14;9.68;;;4.78;;
47966;SDS011;33733;52.456;13.620;2023-01-24T16:46:46;13.35;;;4.68;;
47966;SDS011;33733;52.456;13.620;2023-01-24T16:49:14;9.50;;;3.85;;
47966;SDS011;33733;52.456;13.620;2023-01-24T16:51:44;7.15;;;4.63;;
47966;SDS011;33733;52.456;13.620;2023-01-24T16:54:12;8.82;;;4.15;;
47966;SDS011;33733;52.456;13.620;2023-01-24T16:56:39;8.25;;;4.80;;
47966;SDS011;33733;52.456;13.620;2023-01-24T16:59:08;10.05;;;4.32;;
47966;SDS011;33733;52.456;13.620;2023-01-24T17:01:35;7.70;;;4.35;;
47966;SDS011;33733;52.456;13.620;2023-01-24T17:04:05;8.50;;;3.65;;
47966;SDS011;33733;52.456;13.620;2023-01-24T17:06:32;7.50;;;2.75;;
47966;SDS011;33733;52.456;13.620;2023-01-24T17:09:00;14.15;;;4.63;;
47966;SDS011;33733;52.456;13.620;2023-01-24T17:11:31;9.07;;;4.95;;
47966;SDS011;33733;52.456;13.620;2023-01-24T17:13:58;10.65;;;5.35;;